createdAt,value
2023-05-12T00:01:11.442Z,98273.16
2023-05-12T00:03:37.735Z,98271.28
2023-05-12T00:06:03.926Z,98267.78
2023-05-12T00:08:30.042Z,98268.84
2023-05-12T00:10:56.143Z,98259.75
2023-05-12T00:13:22.308Z,98264.31
2023-05-12T00:15:48.487Z,98260.81
2023-05-12T00:18:14.579Z,98263.50
2023-05-12T00:20:40.670Z,98266.16
2023-05-12T00:23:06.812Z,98271.53
2023-05-12T00:25:32.927Z,98266.16
2023-05-12T00:27:59.029Z,98277.69
2023-05-12T00:30:25.154Z,98271.53
2023-05-12T00:32:51.282Z,98277.69
2023-05-12T00:35:17.393Z,98279.56
2023-05-12T00:37:43.569Z,98283.06
2023-05-12T00:40:09.740Z,98291.91
2023-05-12T00:42:36.004Z,98289.22
2023-05-12T00:45:02.180Z,98289.22
2023-05-12T00:47:28.310Z,98292.72
2023-05-12T00:49:54.443Z,98282.25
2023-05-12T00:52:20.949Z,98289.22
2023-05-12T00:54:47.054Z,98290.03
2023-05-12T00:57:13.174Z,98292.97
2023-05-12T00:59:39.334Z,98292.97
2023-05-12T01:02:05.453Z,98292.97
2023-05-12T01:04:31.575Z,98301.00
2023-05-12T01:06:57.686Z,98295.63
2023-05-12T01:09:23.774Z,98298.31
2023-05-12T01:11:49.872Z,98289.47
2023-05-12T01:14:16.011Z,98298.31
2023-05-12T01:16:42.141Z,98288.63
2023-05-12T01:19:08.298Z,98291.31
2023-05-12T01:21:34.457Z,98299.34
2023-05-12T01:24:00.551Z,98302.03
2023-05-12T01:26:26.664Z,98301.22
2023-05-12T01:28:52.773Z,98295.84
2023-05-12T01:31:20.991Z,98292.34
2023-05-12T01:33:47.382Z,98303.88
2023-05-12T01:36:13.512Z,98297.72
2023-05-12T01:38:39.612Z,98297.72
2023-05-12T01:41:05.712Z,98298.53
2023-05-12T01:43:31.829Z,98301.22
2023-05-12T01:45:57.974Z,98299.34
2023-05-12T01:48:24.086Z,98300.41
2023-05-12T01:50:50.190Z,98298.53
2023-05-12T01:53:16.304Z,98306.56
2023-05-12T01:55:42.398Z,98295.03
2023-05-12T01:58:08.569Z,98297.72
2023-05-12T02:00:34.677Z,98305.75
2023-05-12T02:03:00.860Z,98299.56
2023-05-12T02:05:27.054Z,98312.16
2023-05-12T02:07:53.141Z,98311.09
2023-05-12T02:10:19.364Z,98309.47
2023-05-12T02:12:45.700Z,98309.47
2023-05-12T02:15:11.797Z,98308.63
2023-05-12T02:17:38.061Z,98311.31
2023-05-12T02:20:04.262Z,98308.63
2023-05-12T02:22:30.363Z,98314.84
2023-05-12T02:24:56.449Z,98315.88
2023-05-12T02:27:22.566Z,98315.88
2023-05-12T02:29:48.664Z,98318.34
2023-05-12T02:32:14.762Z,98318.53
2023-05-12T02:34:40.879Z,98303.28
2023-05-12T02:37:07.244Z,98316.69
2023-05-12T02:39:33.378Z,98306.19
2023-05-12T02:41:59.500Z,98310.50
2023-05-12T02:44:25.597Z,98307.00
2023-05-12T02:46:51.701Z,98306.19
2023-05-12T02:49:17.861Z,98311.56
2023-05-12T02:51:43.970Z,98315.88
2023-05-12T02:54:10.069Z,98316.91
2023-05-12T02:56:36.189Z,98311.56
2023-05-12T02:59:02.290Z,98320.41
2023-05-12T03:01:28.407Z,98312.56
2023-05-12T03:03:54.608Z,98313.38
2023-05-12T03:06:20.890Z,98316.91
2023-05-12T03:08:47.086Z,98310.72
2023-05-12T03:11:15.290Z,98322.28
2023-05-12T03:13:41.461Z,98318.75
2023-05-12T03:16:07.724Z,98321.44
2023-05-12T03:18:36.387Z,98324.09
2023-05-12T03:21:02.645Z,98322.28
2023-05-12T03:23:28.889Z,98328.66
2023-05-12T03:25:55.118Z,98322.28
2023-05-12T03:28:21.349Z,98322.28
2023-05-12T03:30:47.556Z,98326.78
2023-05-12T03:33:13.811Z,98331.31
2023-05-12T03:35:40.036Z,98325.97
2023-05-12T03:38:08.162Z,98331.31
2023-05-12T03:40:34.376Z,98327.63
2023-05-12T03:43:00.498Z,98333.19
2023-05-12T03:45:26.663Z,98330.50
2023-05-12T03:47:54.831Z,98335.06
2023-05-12T03:50:21.381Z,98328.66
2023-05-12T03:52:47.658Z,98330.50
2023-05-12T03:55:13.985Z,98327.84
2023-05-12T03:57:42.554Z,98329.69
2023-05-12T04:00:08.646Z,98333.19
2023-05-12T04:02:34.880Z,98333.19
2023-05-12T04:05:01.053Z,98335.06
2023-05-12T04:07:27.136Z,98335.06
2023-05-12T04:09:53.316Z,98335.06
2023-05-12T04:12:19.422Z,98345.78
2023-05-12T04:14:45.538Z,98351.13
2023-05-12T04:17:11.677Z,98356.50
2023-05-12T04:19:37.774Z,98344.97
2023-05-12T04:22:03.851Z,98359.97
2023-05-12T04:24:29.954Z,98361.84
2023-05-12T04:26:56.167Z,98361.03
2023-05-12T04:29:22.280Z,98354.84
2023-05-12T04:31:48.449Z,98362.06
2023-05-12T04:34:14.604Z,98360.19
2023-05-12T04:36:40.736Z,98362.06
2023-05-12T04:39:06.845Z,98359.38
2023-05-12T04:41:32.937Z,98364.72
2023-05-12T04:44:00.650Z,98359.38
2023-05-12T04:46:27.078Z,98371.97
2023-05-12T04:48:53.284Z,98376.50
2023-05-12T04:51:19.372Z,98385.34
2023-05-12T04:53:45.476Z,98378.13
2023-05-12T04:56:11.578Z,98390.72
2023-05-12T04:58:37.690Z,98394.00
2023-05-12T05:01:03.897Z,98404.72
2023-05-12T05:03:30.075Z,98397.69
2023-05-12T05:05:56.214Z,98401.22
2023-05-12T05:08:22.340Z,98409.25
2023-05-12T05:10:48.431Z,98416.44
2023-05-12T05:13:14.556Z,98415.63
2023-05-12T05:15:40.724Z,98421.81
2023-05-12T05:18:06.902Z,98433.38
2023-05-12T05:20:33.272Z,98433.56
2023-05-12T05:22:59.635Z,98436.25
2023-05-12T05:25:25.738Z,98440.78
2023-05-12T05:27:51.843Z,98449.66
2023-05-12T05:30:17.971Z,98444.28
2023-05-12T05:32:44.149Z,98438.94
2023-05-12T05:35:10.439Z,98447.78
2023-05-12T05:37:36.559Z,98442.66
2023-05-12T05:40:02.640Z,98443.47
2023-05-12T05:42:28.748Z,98443.25
2023-05-12T05:44:54.867Z,98454.19
2023-05-12T05:47:21.008Z,98453.38
2023-05-12T05:49:47.121Z,98456.88
2023-05-12T05:52:13.229Z,98460.38
2023-05-12T05:54:39.335Z,98461.41
2023-05-12T05:57:05.550Z,98462.22
2023-05-12T05:59:31.782Z,98468.59
2023-05-12T06:01:57.938Z,98462.44
2023-05-12T06:04:24.104Z,98457.06
2023-05-12T06:06:50.271Z,98464.09
2023-05-12T06:09:16.370Z,98467.78
2023-05-12T06:11:42.472Z,98469.44
2023-05-12T06:14:08.608Z,98467.78
2023-05-12T06:16:34.728Z,98477.69
2023-05-12T06:19:00.899Z,98489.22
2023-05-12T06:21:27.072Z,98483.88
2023-05-12T06:23:53.169Z,98488.41
2023-05-12T06:26:19.265Z,98488.41
2023-05-12T06:28:45.388Z,98498.31
2023-05-12T06:31:11.491Z,98494.78
2023-05-12T06:33:37.611Z,98494.59
2023-05-12T06:36:03.734Z,98504.47
2023-05-12T06:38:29.836Z,98499.94
2023-05-12T06:40:55.923Z,98501.81
2023-05-12T06:43:22.057Z,98503.66
2023-05-12T06:45:48.170Z,98497.47
2023-05-12T06:48:14.272Z,98513.53
2023-05-12T06:50:40.395Z,98507.16
2023-05-12T06:53:06.488Z,98515.41
2023-05-12T06:55:32.584Z,98519.75
2023-05-12T06:57:58.712Z,98525.09
2023-05-12T07:00:24.813Z,98514.38
2023-05-12T07:02:51.029Z,98518.06
2023-05-12T07:05:17.792Z,98518.91
2023-05-12T07:07:43.945Z,98523.22
2023-05-12T07:10:10.039Z,98528.78
2023-05-12T07:12:36.134Z,98526.13
2023-05-12T07:15:02.232Z,98533.34
2023-05-12T07:17:28.357Z,98528.78
2023-05-12T07:19:54.510Z,98534.16
2023-05-12T07:22:20.610Z,98528.78
2023-05-12T07:24:46.712Z,98527.97
2023-05-12T07:27:12.852Z,98525.31
2023-05-12T07:29:38.957Z,98534.16
2023-05-12T07:32:05.056Z,98525.31
2023-05-12T07:34:31.162Z,98537.88
2023-05-12T07:36:57.262Z,98535.19
2023-05-12T07:39:23.397Z,98544.06
2023-05-12T07:41:49.533Z,98537.88
2023-05-12T07:44:15.642Z,98538.69
2023-05-12T07:46:41.769Z,98550.47
2023-05-12T07:49:07.961Z,98538.69
2023-05-12T07:51:34.067Z,98537.06
2023-05-12T07:54:01.642Z,98548.59
2023-05-12T07:56:27.793Z,98547.78
2023-05-12T07:58:53.908Z,98552.91
2023-05-12T08:01:20.002Z,98550.22
2023-05-12T08:03:46.343Z,98549.41
2023-05-12T08:06:12.550Z,98554.78
2023-05-12T08:08:38.664Z,98557.44
2023-05-12T08:11:04.791Z,98554.78
2023-05-12T08:13:30.889Z,98556.63
2023-05-12T08:15:57.006Z,98560.13
2023-05-12T08:18:23.459Z,98555.59
2023-05-12T08:20:49.658Z,98564.66
2023-05-12T08:23:15.751Z,98562.00
2023-05-12T08:25:41.870Z,98558.50
2023-05-12T08:28:07.953Z,98562.00
2023-05-12T08:30:34.107Z,98567.13
2023-05-12T08:33:00.398Z,98570.84
2023-05-12T08:35:26.607Z,98570.84
2023-05-12T08:37:52.747Z,98567.34
2023-05-12T08:40:22.003Z,98570.84
2023-05-12T08:42:48.121Z,98570.84
2023-05-12T08:45:14.254Z,98570.84
2023-05-12T08:47:40.470Z,98576.19
2023-05-12T08:50:06.561Z,98576.19
2023-05-12T08:52:32.663Z,98584.22
2023-05-12T08:55:00.029Z,98585.06
2023-05-12T08:57:29.321Z,98589.41
2023-05-12T08:59:55.751Z,98587.72
2023-05-12T09:02:21.939Z,98585.06
2023-05-12T09:04:48.170Z,98593.91
2023-05-12T09:07:14.533Z,98589.59
2023-05-12T09:09:40.711Z,98593.09
2023-05-12T09:12:06.807Z,98592.06
2023-05-12T09:14:32.940Z,98585.88
2023-05-12T09:16:59.078Z,98590.41
2023-05-12T09:19:25.191Z,98586.72
2023-05-12T09:21:51.345Z,98592.88
2023-05-12T09:24:17.488Z,98583.19
2023-05-12T09:26:43.608Z,98586.72
2023-05-12T09:29:12.025Z,98583.19
2023-05-12T09:31:39.934Z,98589.41
2023-05-12T09:34:06.064Z,98586.72
2023-05-12T09:36:32.168Z,98586.72
2023-05-12T09:38:58.270Z,98592.06
2023-05-12T09:41:24.385Z,98584.84
2023-05-12T09:43:50.540Z,98591.03
2023-05-12T09:46:16.669Z,98596.38
2023-05-12T09:48:42.862Z,98597.19
2023-05-12T09:51:08.963Z,98593.72
2023-05-12T09:53:35.074Z,98593.72
2023-05-12T09:56:03.478Z,98598.03
2023-05-12T09:58:29.572Z,98590.81
2023-05-12T10:03:24.700Z,98598.88
2023-05-12T10:05:50.852Z,98598.03
2023-05-12T10:08:16.964Z,98583.81
2023-05-12T10:10:43.064Z,98588.97
2023-05-12T10:13:09.251Z,98582.78
2023-05-12T10:15:35.449Z,98588.16
2023-05-12T10:18:01.637Z,98583.59
2023-05-12T10:20:27.765Z,98595.94
2023-05-12T10:22:53.875Z,98591.66
2023-05-12T10:25:20.290Z,98594.31
2023-05-12T10:27:46.536Z,98590.59
2023-05-12T10:30:12.664Z,98596.81
2023-05-12T10:32:38.781Z,98600.28
2023-05-12T10:35:04.874Z,98588.53
2023-05-12T10:37:33.825Z,98586.91
2023-05-12T10:39:59.959Z,98596.56
2023-05-12T10:42:26.261Z,98594.72
2023-05-12T10:44:52.432Z,98588.53
2023-05-12T10:47:18.517Z,98578.63
2023-05-12T10:49:44.623Z,98592.88
2023-05-12T10:52:10.764Z,98576.19
2023-05-12T10:54:36.861Z,98589.34
2023-05-12T10:57:03.176Z,98584.84
2023-05-12T10:59:29.898Z,98581.94
2023-05-12T11:01:56.778Z,98581.13
2023-05-12T11:04:23.780Z,98579.25
2023-05-12T11:06:50.236Z,98577.63
2023-05-12T11:09:17.634Z,98582.78
2023-05-12T11:11:45.517Z,98588.94
2023-05-12T11:14:11.957Z,98576.38
2023-05-12T11:16:38.092Z,98580.91
2023-05-12T11:19:04.281Z,98581.72
2023-05-12T11:21:30.866Z,98588.94
2023-05-12T11:23:57.258Z,98586.88
2023-05-12T11:26:23.365Z,98583.34
2023-05-12T11:28:49.861Z,98584.22
2023-05-12T11:31:15.978Z,98579.88
2023-05-12T11:33:42.090Z,98582.34
2023-05-12T11:36:08.205Z,98588.53
2023-05-12T11:38:34.299Z,98583.97
2023-05-12T11:41:00.429Z,98578.63
2023-05-12T11:43:26.579Z,98576.75
2023-05-12T11:45:52.729Z,98577.59
2023-05-12T11:48:18.926Z,98582.97
2023-05-12T11:50:45.073Z,98576.56
2023-05-12T11:53:11.181Z,98578.41
2023-05-12T11:55:37.275Z,98580.28
2023-05-12T11:58:03.389Z,98582.72
2023-05-12T12:00:29.510Z,98595.09
2023-05-12T12:02:55.676Z,98583.53
2023-05-12T12:05:22.179Z,98587.88
2023-05-12T12:07:48.671Z,98585.22
2023-05-12T12:10:14.788Z,98589.75
2023-05-12T12:12:40.912Z,98588.69
2023-05-12T12:15:07.057Z,98592.19
2023-05-12T12:17:33.204Z,98592.19
2023-05-12T12:19:59.412Z,98594.88
2023-05-12T12:22:25.514Z,98597.56
2023-05-12T12:24:51.615Z,98603.75
2023-05-12T12:27:17.761Z,98599.22
2023-05-12T12:29:43.870Z,98600.03
2023-05-12T12:32:09.970Z,98595.50
2023-05-12T12:34:36.092Z,98600.84
2023-05-12T12:37:02.241Z,98602.53
2023-05-12T12:39:28.347Z,98599.84
2023-05-12T12:41:54.477Z,98598.78
2023-05-12T12:44:20.568Z,98595.28
2023-05-12T12:46:46.759Z,98596.09
2023-05-12T12:49:12.891Z,98591.56
2023-05-12T12:51:46.337Z,98596.94
2023-05-12T12:54:13.121Z,98598.59
2023-05-12T12:56:39.231Z,98591.38
2023-05-12T12:59:05.340Z,98597.53
2023-05-12T13:01:31.539Z,98597.53
2023-05-12T13:03:57.630Z,98599.41
2023-05-12T13:06:23.728Z,98606.41
2023-05-12T13:08:49.871Z,98598.34
2023-05-12T13:11:15.978Z,98603.72
2023-05-12T13:13:42.147Z,98599.19
2023-05-12T13:16:08.662Z,98604.56
2023-05-12T13:18:34.846Z,98594.66
2023-05-12T13:21:00.972Z,98607.00
2023-05-12T13:23:27.097Z,98602.69
2023-05-12T13:25:53.231Z,98605.16
2023-05-12T13:28:19.330Z,98606.00
2023-05-12T13:30:45.564Z,98608.69
2023-05-12T13:33:11.754Z,98611.56
2023-05-12T13:35:37.889Z,98608.69
2023-05-12T13:38:04.074Z,98602.28
2023-05-12T13:40:30.186Z,98605.75
2023-05-12T13:42:56.291Z,98598.78
2023-05-12T13:45:22.490Z,98609.25
2023-05-12T13:47:48.764Z,98607.44
2023-05-12T13:50:14.901Z,98620.81
2023-05-12T13:52:41.027Z,98657.50
2023-05-12T13:55:07.137Z,98653.81
2023-05-12T13:57:33.365Z,98651.13
2023-05-12T13:59:59.679Z,98628.03
2023-05-12T14:02:25.947Z,98620.59
2023-05-12T14:04:52.170Z,98613.59
2023-05-12T14:07:18.383Z,98604.50
2023-05-12T14:09:44.487Z,98614.41
2023-05-12T14:12:10.609Z,98607.19
2023-05-12T14:14:36.724Z,98613.59
2023-05-12T14:17:02.826Z,98613.41
2023-05-12T14:19:28.937Z,98618.56
2023-05-12T14:21:55.157Z,98641.06
2023-05-12T14:24:21.464Z,98623.09
2023-05-12T14:26:47.600Z,98622.06
2023-05-12T14:29:13.719Z,98613.19
2023-05-12T14:31:39.866Z,98603.53
2023-05-12T14:34:05.967Z,98614.03
2023-05-12T14:36:32.176Z,98611.34
2023-05-12T14:38:58.332Z,98603.28
2023-05-12T14:41:24.425Z,98617.53
2023-05-12T14:43:50.584Z,98619.38
2023-05-12T14:46:16.876Z,98626.41
2023-05-12T14:48:43.115Z,98627.22
2023-05-12T14:51:09.249Z,98631.78
2023-05-12T14:53:35.340Z,98629.09
2023-05-12T14:56:01.426Z,98632.59
2023-05-12T14:58:27.553Z,98632.59
2023-05-12T15:00:53.715Z,98635.25
2023-05-12T15:03:19.935Z,98641.25
2023-05-12T15:05:59.637Z,98635.06
2023-05-12T15:08:31.433Z,98647.41
2023-05-12T15:10:57.566Z,98640.41
2023-05-12T15:13:23.678Z,98635.06
2023-05-12T15:15:51.050Z,98634.22
2023-05-12T15:18:19.312Z,98635.88
2023-05-12T15:20:45.439Z,98635.06
2023-05-12T15:23:11.546Z,98642.88
2023-05-12T15:25:37.663Z,98634.00
2023-05-12T15:28:03.781Z,98632.16
2023-05-12T15:30:29.901Z,98638.56
2023-05-12T15:32:56.055Z,98625.16
2023-05-12T15:35:22.494Z,98628.66
2023-05-12T15:37:48.705Z,98633.81
2023-05-12T15:40:19.061Z,98626.78
2023-05-12T15:42:45.162Z,98632.16
2023-05-12T15:45:11.334Z,98632.97
2023-05-12T15:47:37.494Z,98623.91
2023-05-12T15:50:03.628Z,98623.91
2023-05-12T15:52:29.726Z,98621.22
2023-05-12T15:54:55.842Z,98622.03
2023-05-12T15:57:21.934Z,98621.22
2023-05-12T15:59:48.581Z,98628.22
2023-05-12T16:02:15.776Z,98627.41
2023-05-12T16:04:41.925Z,98627.41
2023-05-12T16:07:08.051Z,98619.38
2023-05-12T16:09:34.185Z,98618.34
2023-05-12T16:12:00.293Z,98620.19
2023-05-12T16:14:26.397Z,98622.84
2023-05-12T16:16:52.705Z,98618.34
2023-05-12T16:19:19.071Z,98621.03
2023-05-12T16:21:45.220Z,98621.22
2023-05-12T16:24:11.356Z,98621.03
2023-05-12T16:26:37.471Z,98612.97
2023-05-12T16:29:03.606Z,98610.31
2023-05-12T16:31:29.869Z,98616.69
2023-05-12T16:33:56.046Z,98614.81
2023-05-12T16:36:22.137Z,98616.47
2023-05-12T16:38:48.262Z,98620.78
2023-05-12T16:41:14.362Z,98624.28
2023-05-12T16:43:40.459Z,98624.28
2023-05-12T16:46:06.603Z,98623.47
2023-05-12T16:48:32.749Z,98619.97
2023-05-12T16:50:58.826Z,98623.47
2023-05-12T16:53:24.935Z,98626.97
2023-05-12T16:55:51.035Z,98632.34
2023-05-12T16:58:17.119Z,98631.50
2023-05-12T17:00:43.234Z,98633.19
2023-05-12T17:03:09.460Z,98634.81
2023-05-12T17:05:35.637Z,98640.16
2023-05-12T17:08:01.764Z,98641.22
2023-05-12T17:10:27.854Z,98642.84
2023-05-12T17:12:53.955Z,98641.00
2023-05-12T17:15:20.072Z,98644.50
2023-05-12T17:17:46.214Z,98640.78
2023-05-12T17:20:12.319Z,98646.34
2023-05-12T17:22:38.442Z,98648.84
2023-05-12T17:25:04.564Z,98646.16
2023-05-12T17:27:30.729Z,98652.31
2023-05-12T17:29:56.893Z,98655.00
2023-05-12T17:32:23.071Z,98649.66
2023-05-12T17:34:49.200Z,98658.75
2023-05-12T17:37:15.466Z,98661.19
2023-05-12T17:39:41.646Z,98656.88
2023-05-12T17:42:07.755Z,98654.00
2023-05-12T17:44:33.889Z,98656.69
2023-05-12T17:47:00.066Z,98655.00
2023-05-12T17:49:26.246Z,98664.72
2023-05-12T17:51:52.399Z,98660.16
2023-05-12T17:54:18.488Z,98660.16
2023-05-12T17:56:44.600Z,98664.72
2023-05-12T17:59:10.734Z,98664.72
2023-05-12T18:01:36.861Z,98668.22
2023-05-12T18:04:03.047Z,98667.16
2023-05-12T18:06:29.171Z,98671.72
2023-05-12T18:08:55.283Z,98672.53
2023-05-12T18:11:21.369Z,98673.34
2023-05-12T18:13:47.491Z,98670.66
2023-05-12T18:16:27.581Z,98671.50
2023-05-12T18:18:54.975Z,98679.56
2023-05-12T18:21:21.099Z,98679.56
2023-05-12T18:23:47.255Z,98683.06
2023-05-12T18:26:13.544Z,98684.06
2023-05-12T18:28:39.648Z,98684.91
2023-05-12T18:31:15.100Z,98683.88
2023-05-12T18:33:42.237Z,98679.31
2023-05-12T18:36:08.840Z,98690.06
2023-05-12T18:38:34.938Z,98692.72
2023-05-12T18:41:01.055Z,98690.06
2023-05-12T18:43:27.152Z,98691.91
2023-05-12T18:45:53.260Z,98691.91
2023-05-12T18:48:19.371Z,98695.41
2023-05-12T18:50:45.463Z,98697.28
2023-05-12T18:53:11.557Z,98700.78
2023-05-12T18:55:37.674Z,98705.94
2023-05-12T18:58:03.761Z,98715.00
2023-05-12T19:00:29.851Z,98713.16
2023-05-12T19:02:56.004Z,98721.22
2023-05-12T19:05:22.448Z,98713.16
2023-05-12T19:07:48.869Z,98720.38
2023-05-12T19:10:14.998Z,98720.38
2023-05-12T19:12:41.147Z,98719.53
2023-05-12T19:15:07.240Z,98731.09
2023-05-12T19:17:33.420Z,98726.56
2023-05-12T19:19:59.608Z,98737.28
2023-05-12T19:22:25.704Z,98731.94
2023-05-12T19:24:51.817Z,98738.13
2023-05-12T19:27:17.916Z,98731.94
2023-05-12T19:29:44.009Z,98737.28
2023-05-12T19:32:10.208Z,98742.66
2023-05-12T19:34:36.368Z,98741.81
2023-05-12T19:37:02.470Z,98742.66
2023-05-12T19:39:28.599Z,98736.44
2023-05-12T19:41:54.707Z,98741.63
2023-05-12T19:44:20.818Z,98750.72
2023-05-12T19:46:46.997Z,98748.03
2023-05-12T19:49:13.246Z,98749.66
2023-05-12T19:51:42.149Z,98748.84
2023-05-12T19:54:08.408Z,98743.47
2023-05-12T19:56:34.513Z,98748.03
2023-05-12T19:59:00.785Z,98754.22
2023-05-12T20:01:27.122Z,98755.03
2023-05-12T20:03:53.282Z,98755.03
2023-05-12T20:06:19.400Z,98761.19
2023-05-12T20:08:45.577Z,98764.94
2023-05-12T20:11:11.705Z,98755.22
2023-05-12T20:13:37.825Z,98765.75
2023-05-12T20:16:03.952Z,98767.41
2023-05-12T20:18:30.099Z,98761.44
2023-05-12T20:20:56.214Z,98771.13
2023-05-12T20:23:22.371Z,98773.78
2023-05-12T20:25:48.460Z,98788.88
2023-05-12T20:28:14.538Z,98779.16
2023-05-12T20:30:40.643Z,98786.19
2023-05-12T20:33:06.806Z,98776.47
2023-05-12T20:35:32.925Z,98781.03
2023-05-12T20:37:59.053Z,98786.38
2023-05-12T20:40:25.151Z,98779.97
2023-05-12T20:42:51.259Z,98781.03
2023-05-12T20:45:17.371Z,98788.25
2023-05-12T20:47:43.487Z,98787.19
2023-05-12T20:50:09.653Z,98795.25
2023-05-12T20:52:35.758Z,98792.56
2023-05-12T20:55:01.844Z,98786.19
2023-05-12T20:57:27.923Z,98789.06
2023-05-12T20:59:54.047Z,98792.56
2023-05-12T21:02:20.181Z,98794.44
2023-05-12T21:04:46.300Z,98797.94
2023-05-12T21:07:12.417Z,98795.25
2023-05-12T21:09:38.512Z,98791.75
2023-05-12T21:12:04.628Z,98793.63
2023-05-12T21:14:30.745Z,98793.63
2023-05-12T21:16:57.131Z,98796.28
2023-05-12T21:19:23.275Z,98796.28
2023-05-12T21:21:49.402Z,98796.28
2023-05-12T21:24:15.498Z,98801.66
2023-05-12T21:26:41.589Z,98800.81
2023-05-12T21:29:07.694Z,98806.16
2023-05-12T21:31:33.818Z,98801.66
2023-05-12T21:33:59.945Z,98811.53
2023-05-12T21:36:26.119Z,98811.53
2023-05-12T21:38:52.224Z,98813.41
2023-05-12T21:41:18.326Z,98814.22
2023-05-12T21:43:44.451Z,98810.72
2023-05-12T21:46:10.572Z,98816.91
2023-05-12T21:48:36.714Z,98806.16
2023-05-12T21:51:02.848Z,98809.91
2023-05-12T21:53:28.956Z,98809.91
2023-05-12T21:55:55.056Z,98808.03
2023-05-12T21:58:21.181Z,98806.41
2023-05-12T22:00:47.275Z,98807.22
2023-05-12T22:03:13.400Z,98806.41
2023-05-12T22:05:39.586Z,98805.59
2023-05-12T22:08:05.679Z,98808.25
2023-05-12T22:10:31.806Z,98802.91
2023-05-12T22:12:57.928Z,98807.22
2023-05-12T22:15:24.027Z,98809.28
2023-05-12T22:17:50.155Z,98805.78
2023-05-12T22:20:16.291Z,98814.63
2023-05-12T22:22:42.378Z,98820.00
2023-05-12T22:25:08.497Z,98820.00
2023-05-12T22:27:34.637Z,98818.13
2023-05-12T22:30:00.742Z,98828.03
2023-05-12T22:32:26.862Z,98819.19
2023-05-12T22:34:53.011Z,98822.69
2023-05-12T22:37:19.114Z,98820.81
2023-05-12T22:39:45.224Z,98822.69
2023-05-12T22:42:11.413Z,98828.03
2023-05-12T22:44:37.509Z,98829.91
2023-05-12T22:47:03.703Z,98821.88
2023-05-12T22:49:29.851Z,98825.59
2023-05-12T22:51:55.944Z,98822.91
2023-05-12T22:54:22.041Z,98819.63
2023-05-12T22:56:48.227Z,98822.06
2023-05-12T22:59:14.339Z,98822.91
2023-05-12T23:01:40.449Z,98821.25
2023-05-12T23:04:06.616Z,98820.44
2023-05-12T23:06:32.716Z,98815.06
2023-05-12T23:08:58.812Z,98822.28
2023-05-12T23:11:24.958Z,98816.06
2023-05-12T23:13:51.069Z,98807.84
2023-05-12T23:16:17.208Z,98809.91
2023-05-12T23:18:43.367Z,98815.06
2023-05-12T23:21:09.506Z,98817.94
2023-05-12T23:23:35.627Z,98812.59
2023-05-12T23:26:01.755Z,98809.91
2023-05-12T23:28:27.919Z,98804.53
2023-05-12T23:30:54.036Z,98804.53
2023-05-12T23:33:20.199Z,98810.72
2023-05-12T23:35:46.317Z,98807.22
2023-05-12T23:38:12.403Z,98808.25
2023-05-12T23:40:38.529Z,98810.94
2023-05-12T23:43:04.649Z,98808.25
2023-05-12T23:45:30.743Z,98813.81
2023-05-12T23:47:56.895Z,98809.28
2023-05-12T23:50:23.253Z,98804.75
2023-05-12T23:52:49.527Z,98809.28
2023-05-12T23:55:15.648Z,98806.59
2023-05-12T23:57:41.746Z,98813.00
